CheckWX is a tool to help pilots better visualize weather data.  It is not intended as a substitute for an official pre-flight weather briefing.

12:54:52 UTC

KAID METAR
Anderson Municipal-Darlington Field Airport
Anderson, Indiana, USA
Current

20 mins ago

KAID 271235Z AUTO 11003KT 10SM CLR 24/18 A3019 RMK AO2 T02440183
Observed
Jun-27 @ 12:35 UTC
Wind
  • 110° at 3 KTS
Visibility
10 SM
Flight Rules
VFR
Cloud Levels
  • Clear skies
Temperature
24°C / 75°F
Dewpoint
18°C / 64°F
Humidity
69%
Altimeter
30.19" Hg
Pressure
1022.32 hPa
Previous

40 mins ago

KAID 271215Z AUTO 00000KT 10SM CLR 24/18 A3019 RMK AO2 T02360184
Observed
Jun-27 @ 12:15 UTC
Visibility
10 SM
Flight Rules
VFR
Cloud Levels
  • Clear skies
Temperature
24°C / 75°F
Dewpoint
18°C / 64°F
Humidity
69%
Altimeter
30.19" Hg
Pressure
1022.32 hPa
Previous

60 mins ago

KAID 271155Z AUTO 00000KT 10SM CLR 23/18 A3019 RMK AO2 T02260182 10231 20192
Observed
Jun-27 @ 11:55 UTC
Visibility
10 SM
Flight Rules
VFR
Cloud Levels
  • Clear skies
Temperature
23°C / 73°F
Dewpoint
18°C / 64°F
Humidity
74%
Altimeter
30.19" Hg
Pressure
1022.32 hPa